Time;durP1;ratioP1;P1;durP2;ratioP2;P2;SDS_P1;SDS_P2;PMS_P1;PMS_P2;Temp;Humidity;BMP_temperature;BMP_pressure;BME280_temperature;BME280_humidity;BME280_pressure;Samples;Min_cycle;Max_cycle;Signal;HPM_P1;HPM_P2
2022/08/11 00:00:59;;;;;;;2.58;2.45;;;;;;;;;;4953407;29;20207;-61
2022/08/11 00:03:27;;;;;;;2.45;2.35;;;;;;;;;;4953360;29;20561;-61
2022/08/11 00:05:55;;;;;;;2.90;2.65;;;;;;;;;;4953117;29;20238;-61
2022/08/11 00:08:23;;;;;;;3.17;2.60;;;;;;;;;;4953240;29;20203;-61
2022/08/11 00:10:55;;;;;;;2.75;2.63;;;;;;;;;;4953335;29;20285;-61
2022/08/11 00:13:22;;;;;;;3.15;2.60;;;;;;;;;;4953595;29;20211;-61
2022/08/11 00:15:51;;;;;;;3.33;2.60;;;;;;;;;;4953384;29;20207;-61
2022/08/11 00:18:19;;;;;;;4.82;2.45;;;;;;;;;;4953591;29;20223;-61
2022/08/11 00:20:47;;;;;;;6.78;2.60;;;;;;;;;;4952779;29;20970;-61
2022/08/11 00:23:15;;;;;;;2.65;2.45;;;;;;;;;;4952712;29;20199;-61
2022/08/11 00:25:43;;;;;;;2.70;2.60;;;;;;;;;;4953284;29;20669;-61
2022/08/11 00:28:26;;;;;;;3.15;2.85;;;;;;;;;;4952974;29;20235;-61
2022/08/11 00:30:55;;;;;;;2.60;2.50;;;;;;;;;;4952520;29;20265;-61
2022/08/11 00:33:24;;;;;;;2.42;2.28;;;;;;;;;;4952889;28;20624;-61
2022/08/11 00:35:51;;;;;;;2.60;2.50;;;;;;;;;;4952858;29;20274;-61
2022/08/11 00:38:23;;;;;;;2.63;2.53;;;;;;;;;;4953021;29;20282;-61
2022/08/11 00:40:53;;;;;;;2.63;2.53;;;;;;;;;;4952888;29;20305;-61
2022/08/11 00:43:22;;;;;;;2.55;2.45;;;;;;;;;;4952727;29;20203;-61
2022/08/11 00:46:09;;;;;;;2.92;2.70;;;;;;;;;;4952442;29;20215;-61
2022/08/11 00:48:40;;;;;;;8.68;2.90;;;;;;;;;;4937313;29;20290;-61
2022/08/11 00:51:14;;;;;;;2.72;2.63;;;;;;;;;;4951889;29;20210;-61
2022/08/11 00:53:47;;;;;;;3.10;2.85;;;;;;;;;;4952490;29;20632;-61
2022/08/11 00:56:24;;;;;;;3.65;2.80;;;;;;;;;;4952248;29;20270;-62
2022/08/11 00:59:08;;;;;;;3.08;2.97;;;;;;;;;;4952708;29;20259;-61
2022/08/11 01:01:47;;;;;;;2.85;2.50;;;;;;;;;;4951337;29;20242;-61
2022/08/11 01:04:24;;;;;;;3.42;2.42;;;;;;;;;;4952437;29;20265;-61
2022/08/11 01:07:06;;;;;;;3.00;2.80;;;;;;;;;;4952423;29;20207;-61
2022/08/11 01:09:36;;;;;;;2.80;2.55;;;;;;;;;;4950451;29;20203;-61
2022/08/11 01:12:15;;;;;;;2.70;2.50;;;;;;;;;;4951986;29;20207;-60
2022/08/11 01:15:15;;;;;;;3.00;2.60;;;;;;;;;;4952568;29;20677;-61
2022/08/11 01:17:59;;;;;;;2.80;2.60;;;;;;;;;;4951834;29;20227;-61
2022/08/11 01:20:40;;;;;;;4.53;2.70;;;;;;;;;;4952485;29;20223;-61
2022/08/11 01:23:22;;;;;;;3.13;2.92;;;;;;;;;;4951493;28;20215;-61
2022/08/11 01:26:00;;;;;;;2.90;2.65;;;;;;;;;;4952008;29;20214;-61
2022/08/11 01:28:46;;;;;;;3.20;2.42;;;;;;;;;;4949409;29;20302;-61
2022/08/11 01:31:30;;;;;;;2.67;2.40;;;;;;;;;;4951488;29;20258;-63
2022/08/11 01:34:16;;;;;;;4.18;3.05;;;;;;;;;;4951815;29;20741;-61
2022/08/11 01:37:01;;;;;;;3.28;3.08;;;;;;;;;;4951296;29;20213;-61
2022/08/11 01:39:38;;;;;;;2.95;2.75;;;;;;;;;;4951571;29;20211;-61
2022/08/11 01:45:22;;;;;;;2.92;2.83;;;;;;;;;;4946179;28;20210;-61
2022/08/11 01:47:54;;;;;;;2.80;2.60;;;;;;;;;;4950967;29;20262;-61
2022/08/11 01:50:25;;;;;;;3.70;2.70;;;;;;;;;;4951986;29;20215;-62
2022/08/11 01:53:02;;;;;;;2.88;2.63;;;;;;;;;;4949342;29;20273;-61
2022/08/11 01:55:32;;;;;;;2.78;2.67;;;;;;;;;;4951565;29;20578;-61
2022/08/11 01:58:05;;;;;;;2.75;2.70;;;;;;;;;;4950322;29;20231;-62
2022/08/11 02:00:35;;;;;;;4.05;2.70;;;;;;;;;;4951581;29;20673;-62
2022/08/11 02:03:11;;;;;;;2.75;2.55;;;;;;;;;;4951058;29;20218;-61
2022/08/11 02:05:59;;;;;;;3.05;2.80;;;;;;;;;;4951296;29;20428;-61
2022/08/11 02:08:34;;;;;;;2.80;2.67;;;;;;;;;;4951372;29;20213;-62
2022/08/11 02:13:53;;;;;;;2.17;2.15;;;;;;;;;;4951081;29;20691;-61
2022/08/11 02:16:22;;;;;;;2.95;2.85;;;;;;;;;;4950946;29;20658;-61
2022/08/11 02:24:31;;;;;;;3.00;2.78;;;;;;;;;;4934813;29;20289;-61
2022/08/11 02:27:02;;;;;;;2.78;2.70;;;;;;;;;;4950211;29;20250;-61
2022/08/11 02:29:33;;;;;;;6.72;2.80;;;;;;;;;;4951085;29;20740;-61
2022/08/11 02:34:55;;;;;;;3.13;2.92;;;;;;;;;;4949686;29;20264;-61
2022/08/11 02:37:25;;;;;;;2.83;2.72;;;;;;;;;;4950303;29;20227;-61
2022/08/11 02:40:04;;;;;;;3.03;2.67;;;;;;;;;;4951254;29;20211;-61
2022/08/11 02:42:33;;;;;;;3.72;3.42;;;;;;;;;;4950809;29;20218;-61
2022/08/11 02:45:08;;;;;;;4.53;3.13;;;;;;;;;;4950939;29;20229;-62
2022/08/11 02:47:40;;;;;;;3.15;2.95;;;;;;;;;;4950552;29;20273;-62
2022/08/11 02:50:13;;;;;;;2.80;2.55;;;;;;;;;;4950123;29;20665;-62
2022/08/11 02:52:45;;;;;;;6.45;2.63;;;;;;;;;;4949763;29;20238;-61
2022/08/11 02:55:28;;;;;;;3.03;2.70;;;;;;;;;;4945526;29;20321;-62
2022/08/11 02:57:57;;;;;;;2.90;2.70;;;;;;;;;;4938216;29;20266;-62
2022/08/11 03:00:26;;;;;;;3.10;2.63;;;;;;;;;;4938936;29;20211;-62
2022/08/11 03:02:58;;;;;;;3.90;2.80;;;;;;;;;;4949867;29;20207;-62
2022/08/11 03:05:31;;;;;;;3.03;2.80;;;;;;;;;;4950263;29;20211;-62
2022/08/11 03:08:07;;;;;;;3.30;2.90;;;;;;;;;;4950045;29;20206;-62
2022/08/11 03:10:42;;;;;;;3.58;3.25;;;;;;;;;;4949599;29;20206;-62
2022/08/11 03:19:02;;;;;;;3.97;2.95;;;;;;;;;;4943322;29;20763;-62
2022/08/11 03:21:32;;;;;;;2.78;2.60;;;;;;;;;;4950578;29;20615;-62
2022/08/11 03:24:05;;;;;;;2.92;2.83;;;;;;;;;;4950338;29;20226;-62
2022/08/11 03:26:37;;;;;;;2.70;2.67;;;;;;;;;;4950354;29;20258;-62
2022/08/11 03:29:07;;;;;;;3.53;3.13;;;;;;;;;;4950676;29;20298;-61
2022/08/11 03:31:36;;;;;;;3.15;3.05;;;;;;;;;;4950142;29;20203;-62
2022/08/11 03:34:03;;;;;;;4.28;3.05;;;;;;;;;;4950658;29;20211;-62
2022/08/11 03:36:51;;;;;;;6.95;3.20;;;;;;;;;;4947520;29;20203;-62
2022/08/11 03:39:23;;;;;;;3.20;3.00;;;;;;;;;;4925712;29;20230;-62
2022/08/11 03:41:56;;;;;;;3.30;2.75;;;;;;;;;;4950571;29;20215;-62
2022/08/11 03:44:30;;;;;;;3.10;2.90;;;;;;;;;;4950461;29;20223;-62
2022/08/11 03:47:02;;;;;;;2.90;2.80;;;;;;;;;;4950401;29;20664;-62
2022/08/11 03:49:34;;;;;;;3.17;3.03;;;;;;;;;;4950467;29;20207;-62
2022/08/11 03:52:08;;;;;;;3.28;2.85;;;;;;;;;;4949581;29;20215;-62
2022/08/11 03:54:39;;;;;;;3.38;2.95;;;;;;;;;;4950442;29;20215;-62
2022/08/11 03:57:27;;;;;;;2.83;2.72;;;;;;;;;;4950157;29;20298;-62
2022/08/11 04:00:13;;;;;;;5.07;2.70;;;;;;;;;;4950018;29;20965;-62
2022/08/11 04:03:07;;;;;;;3.85;2.85;;;;;;;;;;4949928;29;20211;-61
2022/08/11 04:05:55;;;;;;;3.42;2.97;;;;;;;;;;4950276;29;20306;-61
2022/08/11 04:08:37;;;;;;;3.00;2.90;;;;;;;;;;4926474;28;20218;-61
2022/08/11 04:11:23;;;;;;;2.72;2.72;;;;;;;;;;4953738;29;20213;-61
2022/08/11 04:15:58;;;;;;;5.38;3.20;;;;;;;;;;4952180;29;20211;-61
2022/08/11 04:16:53;;;;;;;3.53;3.15;;;;;;;;;;4953702;29;20681;-61
2022/08/11 04:19:37;;;;;;;7.03;3.10;;;;;;;;;;4953607;29;20282;-61
2022/08/11 04:22:14;;;;;;;6.70;3.50;;;;;;;;;;4950680;29;20207;-61
2022/08/11 04:25:03;;;;;;;6.25;2.75;;;;;;;;;;4953145;29;20222;-61
2022/08/11 04:27:54;;;;;;;3.60;3.40;;;;;;;;;;4953359;29;20246;-61
2022/08/11 04:30:28;;;;;;;3.53;3.22;;;;;;;;;;4953218;29;20278;-61
2022/08/11 04:33:19;;;;;;;8.50;3.65;;;;;;;;;;4953037;29;20207;-61
2022/08/11 04:35:53;;;;;;;3.42;3.13;;;;;;;;;;4899143;29;20266;-61
2022/08/11 04:38:38;;;;;;;3.50;3.30;;;;;;;;;;4953585;29;20237;-61
2022/08/11 04:41:25;;;;;;;3.17;2.97;;;;;;;;;;4952689;29;20199;-61
2022/08/11 04:44:15;;;;;;;2.80;2.70;;;;;;;;;;4953435;29;20215;-60
2022/08/11 04:46:56;;;;;;;5.82;2.80;;;;;;;;;;4953211;29;20199;-61
2022/08/11 05:05:29;;;;;;;3.03;2.92;;;;;;;;;;4953412;29;20210;-60
2022/08/11 05:07:17;;;;;;;3.22;3.05;;;;;;;;;;4944243;29;20207;-61
2022/08/11 05:09:51;;;;;;;3.10;2.83;;;;;;;;;;4952673;29;20202;-61
2022/08/11 05:12:36;;;;;;;3.80;3.50;;;;;;;;;;4952694;29;20207;-61
2022/08/11 05:35:03;;;;;;;3.58;3.00;;;;;;;;;;4952194;29;20242;-61
2022/08/11 05:37:34;;;;;;;2.65;2.60;;;;;;;;;;4952216;29;20254;-61
2022/08/11 05:56:44;;;;;;;2.85;2.65;;;;;;;;;;4951630;29;20273;-61
2022/08/11 05:59:14;;;;;;;3.20;3.00;;;;;;;;;;4952046;29;20258;-61
2022/08/11 06:01:42;;;;;;;3.95;2.80;;;;;;;;;;4951424;29;20243;-61
2022/08/11 06:04:14;;;;;;;4.75;2.97;;;;;;;;;;4951618;29;20748;-62
2022/08/11 06:06:49;;;;;;;4.35;2.88;;;;;;;;;;4951755;29;20543;-62
2022/08/11 06:09:21;;;;;;;7.25;2.50;;;;;;;;;;4951728;29;20211;-63
2022/08/11 06:11:48;;;;;;;2.92;2.83;;;;;;;;;;4951318;29;20254;-62
2022/08/11 06:14:15;;;;;;;3.03;2.92;;;;;;;;;;4951375;29;20229;-62
2022/08/11 06:16:43;;;;;;;9.00;2.80;;;;;;;;;;4951735;29;20214;-62
2022/08/11 06:19:10;;;;;;;3.13;2.92;;;;;;;;;;4951380;29;20234;-62
2022/08/11 06:21:38;;;;;;;2.92;2.83;;;;;;;;;;4951873;29;20289;-62
2022/08/11 06:24:06;;;;;;;5.70;2.92;;;;;;;;;;4953631;28;20337;-63
2022/08/11 06:26:35;;;;;;;3.00;2.80;;;;;;;;;;4951547;29;20243;-63
2022/08/11 06:29:02;;;;;;;3.53;2.65;;;;;;;;;;4951641;29;20270;-62
2022/08/11 06:31:30;;;;;;;4.75;2.78;;;;;;;;;;4951146;28;20673;-64
2022/08/11 06:34:00;;;;;;;2.83;2.72;;;;;;;;;;4951274;29;20206;-64
2022/08/11 06:36:33;;;;;;;4.35;2.60;;;;;;;;;;4951485;29;20222;-64
2022/08/11 06:39:02;;;;;;;2.63;2.47;;;;;;;;;;4951095;29;20234;-64
2022/08/11 06:41:34;;;;;;;8.15;2.47;;;;;;;;;;4950701;29;20649;-64
2022/08/11 06:44:09;;;;;;;2.85;2.65;;;;;;;;;;4951588;29;20965;-63
2022/08/11 06:46:38;;;;;;;3.03;2.63;;;;;;;;;;4947889;29;20269;-61
2022/08/11 06:51:10;;;;;;;4.97;3.00;;;;;;;;;;4950464;29;20241;-63
2022/08/11 06:51:53;;;;;;;5.45;2.60;;;;;;;;;;4942688;29;20592;-64
2022/08/11 06:54:21;;;;;;;4.78;2.83;;;;;;;;;;4950270;29;20215;-62
2022/08/11 07:02:23;;;;;;;3.20;2.35;;;;;;;;;;4931583;29;20263;-62
2022/08/11 07:04:55;;;;;;;4.07;2.63;;;;;;;;;;4946899;29;20227;-64
2022/08/11 07:16:03;;;;;;;2.78;2.58;;;;;;;;;;4949104;29;20229;-60
2022/08/11 07:29:43;;;;;;;3.53;2.55;;;;;;;;;;4949949;29;20210;-63
2022/08/11 07:32:15;;;;;;;2.50;2.40;;;;;;;;;;4946105;29;20207;-63
2022/08/11 07:34:48;;;;;;;2.72;2.60;;;;;;;;;;4949282;29;20310;-63
2022/08/11 07:37:18;;;;;;;2.75;2.55;;;;;;;;;;4947643;29;20750;-62
2022/08/11 07:39:48;;;;;;;2.55;2.45;;;;;;;;;;4949685;29;20246;-62
2022/08/11 07:42:16;;;;;;;6.22;2.58;;;;;;;;;;4949071;28;20218;-63
2022/08/11 07:53:09;;;;;;;2.10;2.00;;;;;;;;;;4945312;29;20206;-63
2022/08/11 07:55:37;;;;;;;3.10;2.88;;;;;;;;;;4953105;29;20238;-63
2022/08/11 08:20:12;;;;;;;4.95;2.20;;;;;;;;;;4933633;29;20238;-63
2022/08/11 08:22:40;;;;;;;2.30;2.30;;;;;;;;;;4950608;29;20619;-63
2022/08/11 08:25:08;;;;;;;4.70;2.78;;;;;;;;;;4952738;29;20241;-63
2022/08/11 08:27:37;;;;;;;3.63;2.40;;;;;;;;;;4952155;29;20234;-63
2022/08/11 08:32:50;;;;;;;5.88;2.70;;;;;;;;;;4952338;29;20572;-62
2022/08/11 08:35:20;;;;;;;2.20;2.10;;;;;;;;;;4952305;29;20727;-63
2022/08/11 08:37:50;;;;;;;4.20;2.47;;;;;;;;;;4951203;29;20663;-62
2022/08/11 08:40:17;;;;;;;2.50;2.50;;;;;;;;;;4951688;29;20709;-63
2022/08/11 08:42:46;;;;;;;2.38;2.38;;;;;;;;;;4951943;29;20211;-63
2022/08/11 08:45:17;;;;;;;2.20;2.20;;;;;;;;;;4951526;29;20271;-63
2022/08/11 08:47:46;;;;;;;2.80;2.55;;;;;;;;;;4951571;29;20214;-63
2022/08/11 08:50:18;;;;;;;2.67;2.58;;;;;;;;;;4951907;28;20205;-63
2022/08/11 08:52:50;;;;;;;2.95;2.50;;;;;;;;;;4952533;28;20211;-64
2022/08/11 08:55:18;;;;;;;3.90;2.30;;;;;;;;;;4952280;28;20214;-64
2022/08/11 08:57:46;;;;;;;2.72;2.33;;;;;;;;;;4951645;29;20250;-63
2022/08/11 09:00:15;;;;;;;3.78;2.10;;;;;;;;;;4951987;29;20685;-63
2022/08/11 09:02:42;;;;;;;2.58;2.38;;;;;;;;;;4951846;29;20705;-64
2022/08/11 09:05:10;;;;;;;2.83;2.15;;;;;;;;;;4951540;29;20214;-64
2022/08/11 09:07:37;;;;;;;2.78;2.67;;;;;;;;;;4950936;28;20297;-65
2022/08/11 09:10:07;;;;;;;2.22;2.22;;;;;;;;;;4951624;29;20203;-67
2022/08/11 09:12:34;;;;;;;2.03;2.00;;;;;;;;;;4951692;29;20527;-67
2022/08/11 09:15:04;;;;;;;3.47;2.25;;;;;;;;;;4952190;29;20364;-69
2022/08/11 09:17:34;;;;;;;2.13;2.10;;;;;;;;;;4952302;29;20211;-65
2022/08/11 09:20:04;;;;;;;4.80;2.45;;;;;;;;;;4937666;29;20238;-66
2022/08/11 09:28:04;;;;;;;5.18;2.30;;;;;;;;;;4946032;29;20262;-59
2022/08/11 09:30:32;;;;;;;2.20;2.10;;;;;;;;;;4948110;29;20211;-64
2022/08/11 09:33:00;;;;;;;2.28;2.17;;;;;;;;;;4950257;29;20294;-61
2022/08/11 09:35:27;;;;;;;4.00;2.17;;;;;;;;;;4951229;29;20449;-62
2022/08/11 09:40:43;;;;;;;1.73;1.65;;;;;;;;;;4950671;29;20226;-66
2022/08/11 09:45:57;;;;;;;2.10;1.90;;;;;;;;;;4951944;28;20359;-65
2022/08/11 09:48:25;;;;;;;3.00;1.85;;;;;;;;;;4951413;29;20242;-65
2022/08/11 09:50:54;;;;;;;2.33;1.92;;;;;;;;;;4951516;29;20673;-66
2022/08/11 09:53:22;;;;;;;1.83;1.83;;;;;;;;;;4951118;29;20199;-64
2022/08/11 09:55:51;;;;;;;2.55;1.90;;;;;;;;;;4951375;29;20266;-65
2022/08/11 09:58:17;;;;;;;3.55;1.70;;;;;;;;;;4950978;29;20657;-63
2022/08/11 10:00:45;;;;;;;1.90;1.80;;;;;;;;;;4953711;28;20322;-63
2022/08/11 10:03:14;;;;;;;1.70;1.60;;;;;;;;;;4948745;28;20588;-64
2022/08/11 10:08:32;;;;;;;2.05;1.88;;;;;;;;;;4955989;28;20208;-66
2022/08/11 10:11:00;;;;;;;2.33;2.03;;;;;;;;;;4970070;28;20265;-66
2022/08/11 10:13:32;;;;;;;3.17;1.73;;;;;;;;;;4950840;28;20210;-66
2022/08/11 10:16:01;;;;;;;2.95;1.90;;;;;;;;;;4951488;29;20274;-66
2022/08/11 10:18:48;;;;;;;1.90;1.88;;;;;;;;;;4950406;29;20207;-65
2022/08/11 10:21:17;;;;;;;2.13;1.90;;;;;;;;;;4944918;29;20728;-65
2022/08/11 10:34:47;;;;;;;2.08;2.08;;;;;;;;;;4950586;29;20716;-64
2022/08/11 10:37:16;;;;;;;1.77;1.77;;;;;;;;;;4949587;29;20207;-65
2022/08/11 10:39:43;;;;;;;1.70;1.70;;;;;;;;;;4949951;29;20382;-65
2022/08/11 10:44:58;;;;;;;1.80;1.80;;;;;;;;;;4950348;29;20220;-63
2022/08/11 10:47:33;;;;;;;1.90;1.80;;;;;;;;;;4945623;29;20215;-62
2022/08/11 11:01:04;;;;;;;2.33;1.88;;;;;;;;;;4950217;29;20337;-62
2022/08/11 11:03:33;;;;;;;2.47;1.90;;;;;;;;;;4950939;29;20215;-63
2022/08/11 11:06:04;;;;;;;2.03;1.80;;;;;;;;;;4950224;29;20214;-63
2022/08/11 11:11:19;;;;;;;4.00;1.58;;;;;;;;;;4946437;29;20226;-63
2022/08/11 11:19:23;;;;;;;1.95;1.85;;;;;;;;;;4952389;29;20241;-64
2022/08/11 11:21:52;;;;;;;2.10;2.10;;;;;;;;;;4954388;29;20218;-63
2022/08/11 11:24:36;;;;;;;4.60;1.83;;;;;;;;;;4952735;29;20603;-61
2022/08/11 11:27:07;;;;;;;1.23;1.23;;;;;;;;;;4953685;29;20325;-65
2022/08/11 11:29:43;;;;;;;3.42;2.08;;;;;;;;;;4953927;29;20248;-62
2022/08/11 11:32:17;;;;;;;1.90;1.80;;;;;;;;;;4953655;29;20449;-62
2022/08/11 11:35:02;;;;;;;2.10;2.10;;;;;;;;;;4942364;29;20203;-62
2022/08/11 11:37:31;;;;;;;1.85;1.83;;;;;;;;;;4943335;29;20211;-62
2022/08/11 11:39:59;;;;;;;2.90;1.40;;;;;;;;;;4952715;29;20238;-62
2022/08/11 11:42:26;;;;;;;3.00;1.85;;;;;;;;;;4952691;29;20293;-63
2022/08/11 11:44:55;;;;;;;1.85;1.85;;;;;;;;;;4953244;29;20215;-64
2022/08/11 11:47:22;;;;;;;2.15;2.05;;;;;;;;;;4953377;29;20215;-63
2022/08/11 11:49:50;;;;;;;3.50;1.75;;;;;;;;;;4952606;29;20753;-63
2022/08/11 11:52:18;;;;;;;3.08;2.20;;;;;;;;;;4952828;29;20228;-63
2022/08/11 11:54:49;;;;;;;1.67;1.58;;;;;;;;;;4952569;29;20933;-63
2022/08/11 12:02:50;;;;;;;2.20;2.10;;;;;;;;;;4953052;29;20607;-63
2022/08/11 12:05:17;;;;;;;2.10;2.00;;;;;;;;;;4953037;29;20219;-63
2022/08/11 12:10:29;;;;;;;2.63;1.90;;;;;;;;;;4954746;28;20285;-62
2022/08/11 12:15:43;;;;;;;2.20;2.00;;;;;;;;;;4953018;29;20239;-64
2022/08/11 12:18:11;;;;;;;2.30;2.20;;;;;;;;;;4952146;29;20207;-61
2022/08/11 12:20:38;;;;;;;2.38;2.17;;;;;;;;;;4952572;29;20285;-63
2022/08/11 12:28:35;;;;;;;2.08;2.00;;;;;;;;;;4951917;28;20662;-63
2022/08/11 12:31:04;;;;;;;2.42;2.33;;;;;;;;;;4952926;29;20266;-62
2022/08/11 12:33:31;;;;;;;2.55;2.35;;;;;;;;;;4951670;29;20677;-62
2022/08/11 12:35:59;;;;;;;4.05;2.70;;;;;;;;;;4952281;29;20217;-62
2022/08/11 12:38:27;;;;;;;2.40;2.30;;;;;;;;;;4952543;29;20222;-63
2022/08/11 12:46:30;;;;;;;2.88;2.65;;;;;;;;;;4949398;29;20210;-64
2022/08/11 12:51:58;;;;;;;2.83;2.58;;;;;;;;;;4950840;29;20354;-62
2022/08/11 12:54:27;;;;;;;2.88;2.67;;;;;;;;;;4949588;29;20211;-62
2022/08/11 13:05:15;;;;;;;3.28;2.20;;;;;;;;;;4952115;29;20210;-63
2022/08/11 13:07:43;;;;;;;3.08;1.90;;;;;;;;;;4952579;29;20219;-63
2022/08/11 13:10:11;;;;;;;3.35;2.30;;;;;;;;;;4951583;29;20653;-63
2022/08/11 13:12:47;;;;;;;2.20;2.20;;;;;;;;;;4952666;29;20215;-64
2022/08/11 13:15:15;;;;;;;2.13;2.10;;;;;;;;;;4951259;29;20951;-64
2022/08/11 13:17:44;;;;;;;3.50;2.30;;;;;;;;;;4956300;28;20211;-63
2022/08/11 13:20:12;;;;;;;3.63;2.50;;;;;;;;;;4946905;29;20227;-63
2022/08/11 13:22:40;;;;;;;2.13;2.03;;;;;;;;;;4951009;29;20211;-63
2022/08/11 13:25:08;;;;;;;2.92;2.72;;;;;;;;;;4951926;28;20246;-63
2022/08/11 13:27:36;;;;;;;2.15;2.10;;;;;;;;;;4952354;28;20242;-62
2022/08/11 13:32:50;;;;;;;2.83;2.72;;;;;;;;;;4942442;29;20214;-63
2022/08/11 13:35:18;;;;;;;4.78;2.75;;;;;;;;;;4947958;29;20736;-62
2022/08/11 13:37:46;;;;;;;2.63;2.53;;;;;;;;;;4951152;29;20581;-63
2022/08/11 13:40:14;;;;;;;3.33;2.60;;;;;;;;;;4950250;28;20227;-63
2022/08/11 13:42:42;;;;;;;2.08;2.08;;;;;;;;;;4951001;29;20581;-63
2022/08/11 13:45:09;;;;;;;2.47;1.90;;;;;;;;;;4951553;29;20226;-64
2022/08/11 13:47:37;;;;;;;13.20;2.53;;;;;;;;;;4950717;29;20680;-63
2022/08/11 13:50:07;;;;;;;2.17;2.00;;;;;;;;;;4950750;29;20214;-64
2022/08/11 13:52:35;;;;;;;2.10;2.10;;;;;;;;;;4951003;28;20214;-64
2022/08/11 13:55:02;;;;;;;3.92;2.60;;;;;;;;;;4950496;29;20209;-64
2022/08/11 13:57:32;;;;;;;2.40;2.30;;;;;;;;;;4950568;29;20203;-64
2022/08/11 14:00:08;;;;;;;2.20;2.10;;;;;;;;;;4950713;29;20203;-64
2022/08/11 14:02:36;;;;;;;2.10;2.00;;;;;;;;;;4950728;29;20975;-65
2022/08/11 14:05:04;;;;;;;1.90;1.83;;;;;;;;;;4950958;29;20289;-67
2022/08/11 14:07:36;;;;;;;2.30;2.20;;;;;;;;;;4949551;29;20918;-63
2022/08/11 14:10:03;;;;;;;1.85;1.85;;;;;;;;;;4950206;29;20231;-63
2022/08/11 14:15:18;;;;;;;3.13;2.00;;;;;;;;;;4947052;29;20229;-63
2022/08/11 14:17:48;;;;;;;2.35;2.03;;;;;;;;;;4950257;29;20203;-66
2022/08/11 14:20:17;;;;;;;2.60;2.13;;;;;;;;;;4949226;29;20227;-66
2022/08/11 14:22:45;;;;;;;2.30;2.17;;;;;;;;;;4949700;29;20225;-65
2022/08/11 14:25:14;;;;;;;3.92;2.00;;;;;;;;;;4950727;28;20374;-64
2022/08/11 14:27:41;;;;;;;3.45;1.77;;;;;;;;;;4951171;29;20651;-65
2022/08/11 14:30:53;;;;;;;4.70;2.20;;;;;;;;;;4950247;29;20215;-64
2022/08/11 14:32:56;;;;;;;3.88;1.70;;;;;;;;;;4931633;29;20215;-64
2022/08/11 14:35:24;;;;;;;1.65;1.65;;;;;;;;;;4950819;29;20210;-64
2022/08/11 14:37:52;;;;;;;2.05;1.92;;;;;;;;;;4950631;29;20277;-64
2022/08/11 14:48:31;;;;;;;1.85;1.85;;;;;;;;;;4951193;29;20286;-63
2022/08/11 14:50:59;;;;;;;2.80;2.20;;;;;;;;;;4950162;29;20211;-64
2022/08/11 14:53:27;;;;;;;1.98;1.88;;;;;;;;;;4943126;29;20214;-64
2022/08/11 14:58:39;;;;;;;2.40;2.22;;;;;;;;;;4950613;29;20206;-64
2022/08/11 15:03:05;;;;;;;2.65;1.65;;;;;;;;;;4947757;29;20767;-63
2022/08/11 15:03:53;;;;;;;2.03;1.90;;;;;;;;;;4947477;29;20225;-63
2022/08/11 15:06:20;;;;;;;1.88;1.88;;;;;;;;;;4948045;29;20215;-67
2022/08/11 15:08:55;;;;;;;1.50;1.50;;;;;;;;;;4945464;29;20696;-62
2022/08/11 15:14:08;;;;;;;1.85;1.75;;;;;;;;;;4949725;29;20238;-63
2022/08/11 15:19:21;;;;;;;2.08;2.08;;;;;;;;;;4941910;29;20209;-63
2022/08/11 15:24:35;;;;;;;1.95;1.95;;;;;;;;;;4950340;29;20285;-63
2022/08/11 15:38:22;;;;;;;3.65;1.90;;;;;;;;;;4941082;29;20209;-63
2022/08/11 15:46:35;;;;;;;2.10;1.85;;;;;;;;;;4948913;29;20223;-64
2022/08/11 15:49:04;;;;;;;2.78;2.67;;;;;;;;;;4949288;29;20214;-64
2022/08/11 15:51:34;;;;;;;2.05;1.95;;;;;;;;;;4948702;29;20658;-64
2022/08/11 15:54:04;;;;;;;4.60;4.28;;;;;;;;;;4940881;29;20210;-64
2022/08/11 15:56:33;;;;;;;3.08;2.83;;;;;;;;;;4949390;28;20290;-62
2022/08/11 16:04:33;;;;;;;2.10;2.00;;;;;;;;;;4952963;28;20213;-62
2022/08/11 16:07:01;;;;;;;2.10;2.00;;;;;;;;;;4953682;28;20281;-63
2022/08/11 16:09:33;;;;;;;2.35;2.15;;;;;;;;;;4952951;29;20215;-63
2022/08/11 16:12:03;;;;;;;2.33;2.08;;;;;;;;;;4952732;29;20539;-65
2022/08/11 16:17:18;;;;;;;2.13;2.03;;;;;;;;;;4953142;29;20237;-63
2022/08/11 16:19:47;;;;;;;3.90;2.20;;;;;;;;;;4952882;29;20218;-63
2022/08/11 16:22:17;;;;;;;2.85;1.95;;;;;;;;;;4954609;28;20235;-63
2022/08/11 16:24:45;;;;;;;2.30;2.08;;;;;;;;;;4952128;28;20250;-63
2022/08/11 16:27:14;;;;;;;2.47;2.38;;;;;;;;;;4948882;29;20276;-63
2022/08/11 16:29:45;;;;;;;8.27;2.08;;;;;;;;;;4950221;28;20278;-64
2022/08/11 16:32:17;;;;;;;2.88;2.05;;;;;;;;;;4949225;29;20413;-64
2022/08/11 16:40:19;;;;;;;4.97;2.30;;;;;;;;;;4951421;28;20680;-61
2022/08/11 16:48:20;;;;;;;3.65;2.15;;;;;;;;;;4952519;29;20579;-61
2022/08/11 16:50:47;;;;;;;4.15;2.30;;;;;;;;;;4951713;29;21115;-61
2022/08/11 16:53:16;;;;;;;3.92;2.03;;;;;;;;;;4952195;29;20219;-64
2022/08/11 16:55:44;;;;;;;2.05;1.95;;;;;;;;;;4951823;29;20207;-66
2022/08/11 17:00:58;;;;;;;3.88;2.30;;;;;;;;;;4951514;29;20245;-66
2022/08/11 17:14:29;;;;;;;2.38;2.22;;;;;;;;;;4951039;29;20202;-63
2022/08/11 17:16:57;;;;;;;2.58;1.90;;;;;;;;;;4951734;29;20222;-65
2022/08/11 17:19:25;;;;;;;3.58;2.15;;;;;;;;;;4948778;29;20214;-65
2022/08/11 17:24:39;;;;;;;6.07;1.90;;;;;;;;;;4952046;29;20222;-64
2022/08/11 17:27:07;;;;;;;1.83;1.83;;;;;;;;;;4951414;29;20292;-65
2022/08/11 17:29:37;;;;;;;2.92;1.88;;;;;;;;;;4951571;29;20298;-64
2022/08/11 17:37:38;;;;;;;7.95;2.95;;;;;;;;;;4951164;29;20206;-65
2022/08/11 17:40:06;;;;;;;2.10;2.00;;;;;;;;;;4950724;29;20222;-65
2022/08/11 17:50:51;;;;;;;2.20;2.00;;;;;;;;;;4945590;29;20589;-66
2022/08/11 18:01:44;;;;;;;2.45;2.10;;;;;;;;;;4949461;29;20297;-68
2022/08/11 18:04:10;;;;;;;1.73;1.63;;;;;;;;;;4947089;29;20683;-68
2022/08/11 18:06:39;;;;;;;2.20;2.20;;;;;;;;;;4949555;29;20678;-68
